メインページ
METAR-TAF:

METAR-TAF

空港 :

ダブリン, アイルランド

ダブリン空港

緯度: 53-26N, 経度: 006-15W, 海抜: 68m

現時点の気象観測

当レポートは31分前の23:30(UTC)に作成
南東の風 11kt
気温 2°C
湿度 69%
気圧 1023 hPa
視程10km以上
1,500メートル以下は雲なし、積乱雲なし

METAR: EIDW 242330Z 13011KT CAVOK 02/M03 Q1023 NOSIG

時間: 00:01 (00:01 UTC)

予報

当レポートは1時間1分前の23:00(UTC)に作成
予報は25日の 00時(UTC)から 25日の 24時(UTC)まで有効
東/南東の風 6kt
視程10km以上
1,500メートル以下は雲なし、積乱雲なし
確率 30% :
25日の 00時(UTC)から 25日の 09時(UTC)まで一時的に
視程: 5000m
25日の 08時(UTC)から 25日の 10時(UTC)まで徐々に
南東の風 13kt
25日の 18時(UTC)から 25日の 21時(UTC)まで徐々に
東/南東の風 8kt

TAF: EIDW 242300Z 2500/2524 12006KT CAVOK PROB30 TEMPO 2500/2509 5000 BR BECMG 2508/2510 13013KT BECMG 2518/2521 11008KT

4,000以上の空港の気象観測と天気予報(METAR報とTAF報)

利用可能な観測所は地図上に黄色い丸と赤い丸で示す。

丸の上にカーソルを重ねると観測所名を参照できる。

次にクリックすると気象観測と天気予報を参照できる。

マップの切り替え:黒色「×」印の緑ボタンをクリックして拡大、「-」印の緑ボタンをクリックして縮小、緑色の三角印をクリックして隣りの地図に切り替え


METAR-TAF: